sensor_id;sensor_type;location;lat;lon;timestamp;P1;durP1;ratioP1;P2;durP2;ratioP2
77524;SDS011;66638;50.050;21.124;2023-08-21T00:01:58;29.00;;;19.90;;
77524;SDS011;66638;50.050;21.124;2023-08-21T00:04:46;27.50;;;19.70;;
77524;SDS011;66638;50.050;21.124;2023-08-21T00:07:33;31.00;;;21.10;;
77524;SDS011;66638;50.050;21.124;2023-08-21T00:10:20;30.30;;;21.50;;
77524;SDS011;66638;50.050;21.124;2023-08-21T00:13:07;29.80;;;20.90;;
77524;SDS011;66638;50.050;21.124;2023-08-21T00:15:55;28.20;;;20.10;;
77524;SDS011;66638;50.050;21.124;2023-08-21T00:18:42;29.00;;;20.80;;
77524;SDS011;66638;50.050;21.124;2023-08-21T00:21:29;29.60;;;21.80;;
77524;SDS011;66638;50.050;21.124;2023-08-21T00:24:16;29.00;;;20.90;;
77524;SDS011;66638;50.050;21.124;2023-08-21T00:27:03;31.00;;;22.70;;
77524;SDS011;66638;50.050;21.124;2023-08-21T00:29:50;35.70;;;22.50;;
77524;SDS011;66638;50.050;21.124;2023-08-21T00:32:38;30.60;;;21.90;;
77524;SDS011;66638;50.050;21.124;2023-08-21T00:35:24;30.10;;;22.10;;
77524;SDS011;66638;50.050;21.124;2023-08-21T00:38:11;29.50;;;21.40;;
77524;SDS011;66638;50.050;21.124;2023-08-21T00:41:02;28.70;;;20.10;;
77524;SDS011;66638;50.050;21.124;2023-08-21T00:43:49;30.20;;;21.30;;
77524;SDS011;66638;50.050;21.124;2023-08-21T00:46:36;31.80;;;21.80;;
77524;SDS011;66638;50.050;21.124;2023-08-21T00:49:23;30.60;;;23.60;;
77524;SDS011;66638;50.050;21.124;2023-08-21T00:52:11;33.60;;;23.50;;
77524;SDS011;66638;50.050;21.124;2023-08-21T00:54:59;33.20;;;21.90;;
77524;SDS011;66638;50.050;21.124;2023-08-21T00:57:46;37.40;;;23.80;;
77524;SDS011;66638;50.050;21.124;2023-08-21T01:00:34;39.30;;;24.30;;
77524;SDS011;66638;50.050;21.124;2023-08-21T01:03:22;33.60;;;24.50;;
77524;SDS011;66638;50.050;21.124;2023-08-21T01:06:10;35.70;;;24.40;;
77524;SDS011;66638;50.050;21.124;2023-08-21T01:09:00;33.70;;;23.30;;
77524;SDS011;66638;50.050;21.124;2023-08-21T01:15:08;32.90;;;22.30;;
77524;SDS011;66638;50.050;21.124;2023-08-21T01:17:57;32.40;;;21.80;;
77524;SDS011;66638;50.050;21.124;2023-08-21T01:20:44;30.50;;;21.60;;
77524;SDS011;66638;50.050;21.124;2023-08-21T01:23:36;34.60;;;22.20;;
77524;SDS011;66638;50.050;21.124;2023-08-21T01:26:24;29.90;;;20.50;;
77524;SDS011;66638;50.050;21.124;2023-08-21T01:29:13;27.00;;;19.60;;
77524;SDS011;66638;50.050;21.124;2023-08-21T01:32:02;26.70;;;19.80;;
77524;SDS011;66638;50.050;21.124;2023-08-21T01:35:13;24.10;;;18.70;;
77524;SDS011;66638;50.050;21.124;2023-08-21T01:38:01;26.20;;;19.10;;
77524;SDS011;66638;50.050;21.124;2023-08-21T01:40:49;27.10;;;18.90;;
77524;SDS011;66638;50.050;21.124;2023-08-21T01:43:36;24.60;;;19.10;;
77524;SDS011;66638;50.050;21.124;2023-08-21T01:46:24;24.60;;;18.00;;
77524;SDS011;66638;50.050;21.124;2023-08-21T01:49:11;26.30;;;20.50;;
77524;SDS011;66638;50.050;21.124;2023-08-21T01:51:58;25.80;;;19.10;;
77524;SDS011;66638;50.050;21.124;2023-08-21T01:54:46;27.90;;;19.40;;
77524;SDS011;66638;50.050;21.124;2023-08-21T01:57:34;26.50;;;19.60;;
77524;SDS011;66638;50.050;21.124;2023-08-21T02:00:21;25.60;;;19.10;;
77524;SDS011;66638;50.050;21.124;2023-08-21T02:03:08;25.70;;;19.30;;
77524;SDS011;66638;50.050;21.124;2023-08-21T02:05:56;28.10;;;20.30;;
77524;SDS011;66638;50.050;21.124;2023-08-21T02:08:46;25.80;;;19.70;;
77524;SDS011;66638;50.050;21.124;2023-08-21T02:11:34;22.60;;;18.20;;
77524;SDS011;66638;50.050;21.124;2023-08-21T02:14:21;21.90;;;18.00;;
77524;SDS011;66638;50.050;21.124;2023-08-21T02:17:09;22.50;;;17.60;;
77524;SDS011;66638;50.050;21.124;2023-08-21T02:19:56;22.80;;;17.50;;
77524;SDS011;66638;50.050;21.124;2023-08-21T02:22:43;24.20;;;17.90;;
77524;SDS011;66638;50.050;21.124;2023-08-21T02:25:30;21.20;;;17.10;;
77524;SDS011;66638;50.050;21.124;2023-08-21T02:28:18;23.20;;;19.10;;
77524;SDS011;66638;50.050;21.124;2023-08-21T02:31:11;20.60;;;17.00;;
77524;SDS011;66638;50.050;21.124;2023-08-21T02:33:58;31.00;;;20.20;;
77524;SDS011;66638;50.050;21.124;2023-08-21T02:36:45;27.20;;;20.30;;
77524;SDS011;66638;50.050;21.124;2023-08-21T02:39:33;23.50;;;18.30;;
77524;SDS011;66638;50.050;21.124;2023-08-21T02:42:20;24.30;;;18.20;;
77524;SDS011;66638;50.050;21.124;2023-08-21T02:45:08;22.80;;;16.10;;
77524;SDS011;66638;50.050;21.124;2023-08-21T02:47:56;21.60;;;16.40;;
77524;SDS011;66638;50.050;21.124;2023-08-21T02:50:43;21.40;;;15.20;;
77524;SDS011;66638;50.050;21.124;2023-08-21T02:53:30;20.10;;;14.90;;
77524;SDS011;66638;50.050;21.124;2023-08-21T02:56:17;19.00;;;16.20;;
77524;SDS011;66638;50.050;21.124;2023-08-21T02:59:05;21.80;;;16.40;;
77524;SDS011;66638;50.050;21.124;2023-08-21T03:01:52;22.70;;;18.00;;
77524;SDS011;66638;50.050;21.124;2023-08-21T03:04:39;20.60;;;16.10;;
77524;SDS011;66638;50.050;21.124;2023-08-21T03:07:27;25.00;;;16.90;;
77524;SDS011;66638;50.050;21.124;2023-08-21T03:10:15;23.00;;;16.80;;
77524;SDS011;66638;50.050;21.124;2023-08-21T03:13:02;22.00;;;15.10;;
77524;SDS011;66638;50.050;21.124;2023-08-21T03:15:50;22.40;;;16.00;;
77524;SDS011;66638;50.050;21.124;2023-08-21T03:18:53;19.60;;;14.60;;
77524;SDS011;66638;50.050;21.124;2023-08-21T03:21:42;21.80;;;15.50;;
77524;SDS011;66638;50.050;21.124;2023-08-21T03:24:30;18.00;;;14.60;;
77524;SDS011;66638;50.050;21.124;2023-08-21T03:27:18;22.40;;;16.00;;
77524;SDS011;66638;50.050;21.124;2023-08-21T03:30:06;22.70;;;16.60;;
77524;SDS011;66638;50.050;21.124;2023-08-21T03:32:54;19.40;;;14.50;;
77524;SDS011;66638;50.050;21.124;2023-08-21T03:35:42;19.50;;;15.10;;
77524;SDS011;66638;50.050;21.124;2023-08-21T03:38:29;19.80;;;14.00;;
77524;SDS011;66638;50.050;21.124;2023-08-21T03:41:17;21.10;;;15.10;;
77524;SDS011;66638;50.050;21.124;2023-08-21T03:44:04;20.30;;;13.60;;
77524;SDS011;66638;50.050;21.124;2023-08-21T03:46:51;18.20;;;13.70;;
77524;SDS011;66638;50.050;21.124;2023-08-21T03:49:39;19.50;;;14.40;;
77524;SDS011;66638;50.050;21.124;2023-08-21T03:52:26;19.90;;;15.80;;
77524;SDS011;66638;50.050;21.124;2023-08-21T03:55:13;18.80;;;15.10;;
77524;SDS011;66638;50.050;21.124;2023-08-21T03:58:01;20.70;;;15.70;;
77524;SDS011;66638;50.050;21.124;2023-08-21T04:00:48;22.90;;;16.50;;
77524;SDS011;66638;50.050;21.124;2023-08-21T04:03:36;21.20;;;15.60;;
77524;SDS011;66638;50.050;21.124;2023-08-21T04:06:24;21.00;;;15.80;;
77524;SDS011;66638;50.050;21.124;2023-08-21T04:09:11;20.00;;;14.90;;
77524;SDS011;66638;50.050;21.124;2023-08-21T04:11:58;19.30;;;14.50;;
77524;SDS011;66638;50.050;21.124;2023-08-21T04:14:45;14.90;;;11.60;;
77524;SDS011;66638;50.050;21.124;2023-08-21T04:17:33;15.70;;;12.60;;
77524;SDS011;66638;50.050;21.124;2023-08-21T04:20:20;15.50;;;12.10;;
77524;SDS011;66638;50.050;21.124;2023-08-21T04:23:10;17.10;;;11.60;;
77524;SDS011;66638;50.050;21.124;2023-08-21T04:26:01;13.60;;;11.80;;
77524;SDS011;66638;50.050;21.124;2023-08-21T04:28:49;16.60;;;13.10;;
77524;SDS011;66638;50.050;21.124;2023-08-21T04:31:37;13.70;;;11.60;;
77524;SDS011;66638;50.050;21.124;2023-08-21T04:34:24;14.40;;;11.40;;
77524;SDS011;66638;50.050;21.124;2023-08-21T04:37:12;15.90;;;12.90;;
77524;SDS011;66638;50.050;21.124;2023-08-21T04:39:59;15.40;;;12.90;;
77524;SDS011;66638;50.050;21.124;2023-08-21T04:42:47;16.30;;;13.30;;
77524;SDS011;66638;50.050;21.124;2023-08-21T04:45:34;14.40;;;12.50;;
77524;SDS011;66638;50.050;21.124;2023-08-21T04:48:24;15.00;;;12.20;;
77524;SDS011;66638;50.050;21.124;2023-08-21T04:51:12;14.80;;;13.10;;
77524;SDS011;66638;50.050;21.124;2023-08-21T04:54:00;14.90;;;13.30;;
77524;SDS011;66638;50.050;21.124;2023-08-21T04:56:47;15.70;;;13.10;;
77524;SDS011;66638;50.050;21.124;2023-08-21T04:59:36;14.10;;;12.50;;
77524;SDS011;66638;50.050;21.124;2023-08-21T05:02:23;18.30;;;13.80;;
77524;SDS011;66638;50.050;21.124;2023-08-21T05:05:11;14.80;;;13.40;;
77524;SDS011;66638;50.050;21.124;2023-08-21T05:07:58;13.90;;;12.60;;
77524;SDS011;66638;50.050;21.124;2023-08-21T05:10:45;20.30;;;15.80;;
77524;SDS011;66638;50.050;21.124;2023-08-21T05:13:32;14.80;;;12.10;;
77524;SDS011;66638;50.050;21.124;2023-08-21T05:16:20;13.60;;;12.30;;
77524;SDS011;66638;50.050;21.124;2023-08-21T05:19:07;12.60;;;11.30;;
77524;SDS011;66638;50.050;21.124;2023-08-21T05:21:54;12.50;;;11.30;;
77524;SDS011;66638;50.050;21.124;2023-08-21T05:24:42;14.50;;;12.70;;
77524;SDS011;66638;50.050;21.124;2023-08-21T05:27:29;14.30;;;12.00;;
77524;SDS011;66638;50.050;21.124;2023-08-21T05:30:16;14.30;;;12.90;;
77524;SDS011;66638;50.050;21.124;2023-08-21T05:33:04;13.50;;;12.20;;
77524;SDS011;66638;50.050;21.124;2023-08-21T05:35:52;12.60;;;11.40;;
77524;SDS011;66638;50.050;21.124;2023-08-21T05:38:40;12.70;;;11.50;;
77524;SDS011;66638;50.050;21.124;2023-08-21T05:41:27;13.70;;;11.60;;
77524;SDS011;66638;50.050;21.124;2023-08-21T05:44:15;14.30;;;12.60;;
77524;SDS011;66638;50.050;21.124;2023-08-21T05:47:02;14.00;;;12.70;;
77524;SDS011;66638;50.050;21.124;2023-08-21T05:49:49;14.00;;;12.70;;
77524;SDS011;66638;50.050;21.124;2023-08-21T05:52:36;13.40;;;12.10;;
77524;SDS011;66638;50.050;21.124;2023-08-21T05:55:23;13.10;;;11.70;;
77524;SDS011;66638;50.050;21.124;2023-08-21T05:58:11;12.80;;;11.60;;
77524;SDS011;66638;50.050;21.124;2023-08-21T06:00:58;13.50;;;12.30;;
77524;SDS011;66638;50.050;21.124;2023-08-21T06:03:46;12.70;;;10.90;;
77524;SDS011;66638;50.050;21.124;2023-08-21T06:06:50;13.60;;;12.20;;
77524;SDS011;66638;50.050;21.124;2023-08-21T06:09:38;12.70;;;11.60;;
77524;SDS011;66638;50.050;21.124;2023-08-21T06:12:25;13.10;;;11.80;;
77524;SDS011;66638;50.050;21.124;2023-08-21T06:15:14;12.20;;;10.80;;
77524;SDS011;66638;50.050;21.124;2023-08-21T06:18:01;12.00;;;10.90;;
77524;SDS011;66638;50.050;21.124;2023-08-21T06:20:49;12.40;;;11.20;;
77524;SDS011;66638;50.050;21.124;2023-08-21T06:23:40;13.10;;;11.80;;
77524;SDS011;66638;50.050;21.124;2023-08-21T06:26:27;13.00;;;11.70;;
77524;SDS011;66638;50.050;21.124;2023-08-21T06:29:15;13.00;;;11.90;;
77524;SDS011;66638;50.050;21.124;2023-08-21T06:32:02;13.70;;;12.30;;
77524;SDS011;66638;50.050;21.124;2023-08-21T06:34:50;27.60;;;25.60;;
77524;SDS011;66638;50.050;21.124;2023-08-21T06:37:38;14.90;;;13.50;;
77524;SDS011;66638;50.050;21.124;2023-08-21T06:40:25;14.70;;;12.40;;
77524;SDS011;66638;50.050;21.124;2023-08-21T06:43:13;13.30;;;11.90;;
77524;SDS011;66638;50.050;21.124;2023-08-21T06:46:03;13.40;;;12.10;;
77524;SDS011;66638;50.050;21.124;2023-08-21T06:48:51;14.20;;;12.80;;
77524;SDS011;66638;50.050;21.124;2023-08-21T06:51:38;13.60;;;12.40;;
77524;SDS011;66638;50.050;21.124;2023-08-21T06:54:26;13.60;;;12.40;;
77524;SDS011;66638;50.050;21.124;2023-08-21T06:57:13;17.70;;;16.10;;
77524;SDS011;66638;50.050;21.124;2023-08-21T07:00:01;18.30;;;16.70;;
77524;SDS011;66638;50.050;21.124;2023-08-21T07:02:49;18.90;;;17.10;;
77524;SDS011;66638;50.050;21.124;2023-08-21T07:05:37;20.20;;;18.30;;
77524;SDS011;66638;50.050;21.124;2023-08-21T07:08:24;21.40;;;18.90;;
77524;SDS011;66638;50.050;21.124;2023-08-21T07:11:12;21.60;;;19.80;;
77524;SDS011;66638;50.050;21.124;2023-08-21T07:14:00;22.00;;;19.90;;
77524;SDS011;66638;50.050;21.124;2023-08-21T07:16:48;24.40;;;21.70;;
77524;SDS011;66638;50.050;21.124;2023-08-21T07:19:35;23.90;;;20.00;;
77524;SDS011;66638;50.050;21.124;2023-08-21T07:22:23;41.60;;;23.30;;
77524;SDS011;66638;50.050;21.124;2023-08-21T07:25:10;21.20;;;18.50;;
77524;SDS011;66638;50.050;21.124;2023-08-21T07:27:57;19.30;;;15.00;;
77524;SDS011;66638;50.050;21.124;2023-08-21T07:30:45;25.00;;;15.20;;
77524;SDS011;66638;50.050;21.124;2023-08-21T07:33:32;36.10;;;14.60;;
77524;SDS011;66638;50.050;21.124;2023-08-21T07:36:19;34.70;;;15.50;;
77524;SDS011;66638;50.050;21.124;2023-08-21T07:39:07;26.80;;;13.90;;
77524;SDS011;66638;50.050;21.124;2023-08-21T07:41:54;16.00;;;12.40;;
77524;SDS011;66638;50.050;21.124;2023-08-21T07:44:42;14.30;;;12.70;;
77524;SDS011;66638;50.050;21.124;2023-08-21T07:47:30;18.50;;;11.90;;
77524;SDS011;66638;50.050;21.124;2023-08-21T07:50:17;25.70;;;13.40;;
77524;SDS011;66638;50.050;21.124;2023-08-21T07:53:05;26.80;;;15.50;;
77524;SDS011;66638;50.050;21.124;2023-08-21T07:55:52;19.70;;;12.90;;
77524;SDS011;66638;50.050;21.124;2023-08-21T07:58:39;28.80;;;13.20;;
77524;SDS011;66638;50.050;21.124;2023-08-21T08:01:27;13.50;;;11.50;;
77524;SDS011;66638;50.050;21.124;2023-08-21T08:04:14;14.20;;;9.60;;
77524;SDS011;66638;50.050;21.124;2023-08-21T08:07:02;13.00;;;11.30;;
77524;SDS011;66638;50.050;21.124;2023-08-21T08:09:49;25.20;;;12.60;;
77524;SDS011;66638;50.050;21.124;2023-08-21T08:12:40;11.60;;;10.40;;
77524;SDS011;66638;50.050;21.124;2023-08-21T08:15:29;13.30;;;11.90;;
77524;SDS011;66638;50.050;21.124;2023-08-21T08:18:16;12.90;;;11.00;;
77524;SDS011;66638;50.050;21.124;2023-08-21T08:21:03;11.90;;;11.00;;
77524;SDS011;66638;50.050;21.124;2023-08-21T08:23:51;12.40;;;11.20;;
77524;SDS011;66638;50.050;21.124;2023-08-21T08:26:39;11.60;;;10.60;;
77524;SDS011;66638;50.050;21.124;2023-08-21T08:29:28;14.10;;;12.20;;
77524;SDS011;66638;50.050;21.124;2023-08-21T08:32:15;13.30;;;11.60;;
77524;SDS011;66638;50.050;21.124;2023-08-21T08:35:02;12.00;;;10.90;;
77524;SDS011;66638;50.050;21.124;2023-08-21T08:37:50;31.70;;;14.50;;
77524;SDS011;66638;50.050;21.124;2023-08-21T08:40:38;40.20;;;14.60;;
77524;SDS011;66638;50.050;21.124;2023-08-21T08:43:31;15.00;;;11.20;;
77524;SDS011;66638;50.050;21.124;2023-08-21T08:46:20;13.90;;;11.00;;
77524;SDS011;66638;50.050;21.124;2023-08-21T08:49:07;12.00;;;10.10;;
77524;SDS011;66638;50.050;21.124;2023-08-21T08:51:54;80.30;;;29.40;;
77524;SDS011;66638;50.050;21.124;2023-08-21T08:54:41;15.00;;;11.30;;
77524;SDS011;66638;50.050;21.124;2023-08-21T08:57:29;12.30;;;11.00;;
77524;SDS011;66638;50.050;21.124;2023-08-21T09:00:17;11.20;;;10.10;;
77524;SDS011;66638;50.050;21.124;2023-08-21T09:03:05;12.60;;;10.20;;
77524;SDS011;66638;50.050;21.124;2023-08-21T09:05:52;12.10;;;10.40;;
77524;SDS011;66638;50.050;21.124;2023-08-21T09:08:42;11.30;;;10.30;;
77524;SDS011;66638;50.050;21.124;2023-08-21T09:11:45;11.30;;;10.20;;
77524;SDS011;66638;50.050;21.124;2023-08-21T09:14:33;11.40;;;10.30;;
77524;SDS011;66638;50.050;21.124;2023-08-21T09:17:20;11.10;;;10.10;;
77524;SDS011;66638;50.050;21.124;2023-08-21T09:20:08;11.80;;;10.70;;
77524;SDS011;66638;50.050;21.124;2023-08-21T09:22:56;14.60;;;10.40;;
77524;SDS011;66638;50.050;21.124;2023-08-21T09:25:45;12.50;;;11.30;;
77524;SDS011;66638;50.050;21.124;2023-08-21T09:28:34;12.60;;;11.40;;
77524;SDS011;66638;50.050;21.124;2023-08-21T09:31:22;12.40;;;11.20;;
77524;SDS011;66638;50.050;21.124;2023-08-21T09:34:11;11.90;;;10.90;;
77524;SDS011;66638;50.050;21.124;2023-08-21T09:36:58;13.50;;;12.20;;
77524;SDS011;66638;50.050;21.124;2023-08-21T09:39:47;14.60;;;12.40;;
77524;SDS011;66638;50.050;21.124;2023-08-21T09:42:34;14.90;;;13.40;;
77524;SDS011;66638;50.050;21.124;2023-08-21T09:45:25;16.70;;;13.90;;
77524;SDS011;66638;50.050;21.124;2023-08-21T09:48:13;18.90;;;15.50;;
77524;SDS011;66638;50.050;21.124;2023-08-21T09:51:00;19.00;;;16.10;;
77524;SDS011;66638;50.050;21.124;2023-08-21T09:53:51;15.90;;;14.20;;
77524;SDS011;66638;50.050;21.124;2023-08-21T09:56:41;17.90;;;15.30;;
77524;SDS011;66638;50.050;21.124;2023-08-21T09:59:29;15.30;;;13.40;;
77524;SDS011;66638;50.050;21.124;2023-08-21T10:02:20;13.30;;;11.90;;
77524;SDS011;66638;50.050;21.124;2023-08-21T10:05:08;12.80;;;11.60;;
77524;SDS011;66638;50.050;21.124;2023-08-21T10:07:57;13.60;;;12.40;;
77524;SDS011;66638;50.050;21.124;2023-08-21T10:10:48;13.70;;;12.40;;
77524;SDS011;66638;50.050;21.124;2023-08-21T10:13:39;13.40;;;11.90;;
77524;SDS011;66638;50.050;21.124;2023-08-21T10:16:26;13.50;;;11.80;;
77524;SDS011;66638;50.050;21.124;2023-08-21T10:19:14;14.10;;;12.70;;
77524;SDS011;66638;50.050;21.124;2023-08-21T10:22:01;13.70;;;12.40;;
77524;SDS011;66638;50.050;21.124;2023-08-21T10:24:50;15.10;;;13.50;;
77524;SDS011;66638;50.050;21.124;2023-08-21T10:27:37;14.40;;;12.80;;
77524;SDS011;66638;50.050;21.124;2023-08-21T10:30:25;15.60;;;12.50;;
77524;SDS011;66638;50.050;21.124;2023-08-21T10:33:14;13.20;;;12.00;;
77524;SDS011;66638;50.050;21.124;2023-08-21T10:36:01;11.00;;;9.90;;
77524;SDS011;66638;50.050;21.124;2023-08-21T10:42:06;11.20;;;9.50;;
77524;SDS011;66638;50.050;21.124;2023-08-21T10:44:55;10.50;;;9.50;;
77524;SDS011;66638;50.050;21.124;2023-08-21T10:47:43;12.00;;;10.40;;
77524;SDS011;66638;50.050;21.124;2023-08-21T10:50:33;12.10;;;10.70;;
77524;SDS011;66638;50.050;21.124;2023-08-21T10:53:22;11.50;;;9.60;;
77524;SDS011;66638;50.050;21.124;2023-08-21T10:56:10;13.70;;;10.70;;
77524;SDS011;66638;50.050;21.124;2023-08-21T10:58:58;13.40;;;11.30;;
77524;SDS011;66638;50.050;21.124;2023-08-21T11:01:46;12.30;;;11.10;;
77524;SDS011;66638;50.050;21.124;2023-08-21T11:04:40;11.90;;;10.50;;
77524;SDS011;66638;50.050;21.124;2023-08-21T11:07:27;17.10;;;11.60;;
77524;SDS011;66638;50.050;21.124;2023-08-21T11:10:16;13.40;;;10.80;;
77524;SDS011;66638;50.050;21.124;2023-08-21T11:13:06;12.10;;;10.90;;
77524;SDS011;66638;50.050;21.124;2023-08-21T11:16:02;11.80;;;10.60;;
77524;SDS011;66638;50.050;21.124;2023-08-21T11:18:51;12.60;;;11.30;;
77524;SDS011;66638;50.050;21.124;2023-08-21T11:21:38;12.40;;;11.30;;
77524;SDS011;66638;50.050;21.124;2023-08-21T11:24:29;14.40;;;10.20;;
77524;SDS011;66638;50.050;21.124;2023-08-21T11:27:19;14.00;;;10.70;;
77524;SDS011;66638;50.050;21.124;2023-08-21T11:30:06;15.00;;;12.00;;
77524;SDS011;66638;50.050;21.124;2023-08-21T11:36:01;24.20;;;11.40;;
77524;SDS011;66638;50.050;21.124;2023-08-21T11:38:59;16.30;;;11.50;;
77524;SDS011;66638;50.050;21.124;2023-08-21T11:41:52;12.10;;;10.10;;
77524;SDS011;66638;50.050;21.124;2023-08-21T11:44:41;12.20;;;10.90;;
77524;SDS011;66638;50.050;21.124;2023-08-21T11:47:31;11.00;;;9.80;;
77524;SDS011;66638;50.050;21.124;2023-08-21T11:50:19;16.20;;;11.00;;
77524;SDS011;66638;50.050;21.124;2023-08-21T11:53:07;13.00;;;10.50;;
77524;SDS011;66638;50.050;21.124;2023-08-21T11:55:54;11.30;;;10.20;;
77524;SDS011;66638;50.050;21.124;2023-08-21T11:58:43;13.80;;;10.70;;
77524;SDS011;66638;50.050;21.124;2023-08-21T12:01:33;13.30;;;9.70;;
77524;SDS011;66638;50.050;21.124;2023-08-21T12:04:24;10.90;;;9.10;;
77524;SDS011;66638;50.050;21.124;2023-08-21T12:07:12;10.50;;;9.50;;
77524;SDS011;66638;50.050;21.124;2023-08-21T12:09:59;11.20;;;10.00;;
77524;SDS011;66638;50.050;21.124;2023-08-21T12:12:47;14.20;;;10.70;;
77524;SDS011;66638;50.050;21.124;2023-08-21T12:15:35;11.30;;;9.30;;
77524;SDS011;66638;50.050;21.124;2023-08-21T12:18:22;10.30;;;9.30;;
77524;SDS011;66638;50.050;21.124;2023-08-21T12:21:10;11.70;;;10.50;;
77524;SDS011;66638;50.050;21.124;2023-08-21T12:23:59;14.10;;;10.70;;
77524;SDS011;66638;50.050;21.124;2023-08-21T12:26:52;13.30;;;11.30;;
77524;SDS011;66638;50.050;21.124;2023-08-21T12:29:39;16.90;;;11.20;;
77524;SDS011;66638;50.050;21.124;2023-08-21T12:32:26;14.40;;;10.70;;
77524;SDS011;66638;50.050;21.124;2023-08-21T12:35:13;11.80;;;10.50;;
77524;SDS011;66638;50.050;21.124;2023-08-21T12:38:01;13.70;;;10.40;;
77524;SDS011;66638;50.050;21.124;2023-08-21T12:43:39;12.60;;;11.30;;
77524;SDS011;66638;50.050;21.124;2023-08-21T12:46:27;12.50;;;11.20;;
77524;SDS011;66638;50.050;21.124;2023-08-21T12:49:15;13.20;;;11.90;;
77524;SDS011;66638;50.050;21.124;2023-08-21T12:52:02;12.90;;;11.40;;
77524;SDS011;66638;50.050;21.124;2023-08-21T12:54:51;13.90;;;11.40;;
77524;SDS011;66638;50.050;21.124;2023-08-21T12:57:38;12.40;;;11.10;;
77524;SDS011;66638;50.050;21.124;2023-08-21T13:00:26;13.00;;;10.20;;
77524;SDS011;66638;50.050;21.124;2023-08-21T13:03:13;12.90;;;11.10;;
77524;SDS011;66638;50.050;21.124;2023-08-21T13:06:00;13.60;;;10.60;;
77524;SDS011;66638;50.050;21.124;2023-08-21T13:08:48;13.50;;;12.10;;
77524;SDS011;66638;50.050;21.124;2023-08-21T13:11:35;13.80;;;12.30;;
77524;SDS011;66638;50.050;21.124;2023-08-21T13:14:23;15.60;;;12.40;;
77524;SDS011;66638;50.050;21.124;2023-08-21T13:17:10;17.90;;;13.20;;
77524;SDS011;66638;50.050;21.124;2023-08-21T13:19:58;15.20;;;13.30;;
77524;SDS011;66638;50.050;21.124;2023-08-21T13:22:46;14.80;;;12.10;;
77524;SDS011;66638;50.050;21.124;2023-08-21T13:25:35;14.10;;;12.70;;
77524;SDS011;66638;50.050;21.124;2023-08-21T13:28:23;14.30;;;12.00;;
77524;SDS011;66638;50.050;21.124;2023-08-21T13:31:10;14.70;;;12.30;;
77524;SDS011;66638;50.050;21.124;2023-08-21T13:33:58;12.90;;;11.50;;
77524;SDS011;66638;50.050;21.124;2023-08-21T13:36:46;14.10;;;12.40;;
77524;SDS011;66638;50.050;21.124;2023-08-21T13:39:34;13.80;;;11.80;;
77524;SDS011;66638;50.050;21.124;2023-08-21T13:42:21;14.60;;;13.00;;
77524;SDS011;66638;50.050;21.124;2023-08-21T13:45:10;17.30;;;13.10;;
77524;SDS011;66638;50.050;21.124;2023-08-21T13:47:59;15.40;;;13.70;;
77524;SDS011;66638;50.050;21.124;2023-08-21T13:50:46;15.60;;;13.70;;
77524;SDS011;66638;50.050;21.124;2023-08-21T13:53:33;15.80;;;12.70;;
77524;SDS011;66638;50.050;21.124;2023-08-21T13:56:21;16.00;;;13.20;;
77524;SDS011;66638;50.050;21.124;2023-08-21T13:59:08;14.90;;;12.80;;
77524;SDS011;66638;50.050;21.124;2023-08-21T14:01:55;15.90;;;13.40;;
77524;SDS011;66638;50.050;21.124;2023-08-21T14:04:43;17.90;;;13.30;;
77524;SDS011;66638;50.050;21.124;2023-08-21T14:07:31;13.80;;;12.50;;
77524;SDS011;66638;50.050;21.124;2023-08-21T14:10:19;14.30;;;12.80;;
77524;SDS011;66638;50.050;21.124;2023-08-21T14:13:06;14.80;;;13.00;;
77524;SDS011;66638;50.050;21.124;2023-08-21T14:15:55;15.20;;;13.10;;
77524;SDS011;66638;50.050;21.124;2023-08-21T14:18:42;13.00;;;11.60;;
77524;SDS011;66638;50.050;21.124;2023-08-21T14:21:30;14.80;;;11.90;;
77524;SDS011;66638;50.050;21.124;2023-08-21T14:24:18;14.00;;;12.50;;
77524;SDS011;66638;50.050;21.124;2023-08-21T14:27:05;13.40;;;12.10;;
77524;SDS011;66638;50.050;21.124;2023-08-21T14:29:52;15.80;;;12.60;;
77524;SDS011;66638;50.050;21.124;2023-08-21T14:32:39;13.60;;;12.10;;
77524;SDS011;66638;50.050;21.124;2023-08-21T14:35:27;15.00;;;11.90;;
77524;SDS011;66638;50.050;21.124;2023-08-21T14:38:14;14.90;;;12.30;;
77524;SDS011;66638;50.050;21.124;2023-08-21T14:41:02;14.80;;;13.40;;
77524;SDS011;66638;50.050;21.124;2023-08-21T14:43:49;13.90;;;12.50;;
77524;SDS011;66638;50.050;21.124;2023-08-21T14:46:37;14.10;;;12.60;;
77524;SDS011;66638;50.050;21.124;2023-08-21T14:49:24;14.10;;;12.60;;
77524;SDS011;66638;50.050;21.124;2023-08-21T14:52:11;15.80;;;14.10;;
77524;SDS011;66638;50.050;21.124;2023-08-21T14:54:58;15.10;;;13.20;;
77524;SDS011;66638;50.050;21.124;2023-08-21T14:57:45;14.60;;;12.60;;
77524;SDS011;66638;50.050;21.124;2023-08-21T15:00:33;16.30;;;13.80;;
77524;SDS011;66638;50.050;21.124;2023-08-21T15:03:20;14.80;;;13.30;;
77524;SDS011;66638;50.050;21.124;2023-08-21T15:06:08;14.80;;;13.20;;
77524;SDS011;66638;50.050;21.124;2023-08-21T15:08:57;13.80;;;12.50;;
77524;SDS011;66638;50.050;21.124;2023-08-21T15:11:46;14.40;;;12.90;;
77524;SDS011;66638;50.050;21.124;2023-08-21T15:14:33;16.20;;;13.80;;
77524;SDS011;66638;50.050;21.124;2023-08-21T15:17:21;16.60;;;12.30;;
77524;SDS011;66638;50.050;21.124;2023-08-21T15:20:08;16.50;;;12.10;;
77524;SDS011;66638;50.050;21.124;2023-08-21T15:22:56;14.30;;;12.80;;
77524;SDS011;66638;50.050;21.124;2023-08-21T15:25:50;16.00;;;13.30;;
77524;SDS011;66638;50.050;21.124;2023-08-21T15:28:38;14.30;;;12.90;;
77524;SDS011;66638;50.050;21.124;2023-08-21T15:31:25;15.30;;;13.70;;
77524;SDS011;66638;50.050;21.124;2023-08-21T15:34:13;16.70;;;12.90;;
77524;SDS011;66638;50.050;21.124;2023-08-21T15:37:00;14.90;;;13.30;;
77524;SDS011;66638;50.050;21.124;2023-08-21T15:39:47;15.80;;;12.70;;
77524;SDS011;66638;50.050;21.124;2023-08-21T15:42:34;13.20;;;12.00;;
77524;SDS011;66638;50.050;21.124;2023-08-21T15:45:21;12.90;;;11.60;;
77524;SDS011;66638;50.050;21.124;2023-08-21T15:48:10;13.90;;;12.60;;
77524;SDS011;66638;50.050;21.124;2023-08-21T15:50:57;14.00;;;12.60;;
77524;SDS011;66638;50.050;21.124;2023-08-21T15:53:45;13.00;;;11.80;;
77524;SDS011;66638;50.050;21.124;2023-08-21T15:56:33;16.00;;;13.40;;
77524;SDS011;66638;50.050;21.124;2023-08-21T15:59:20;14.20;;;12.80;;
77524;SDS011;66638;50.050;21.124;2023-08-21T16:02:07;16.30;;;13.60;;
77524;SDS011;66638;50.050;21.124;2023-08-21T16:04:54;14.70;;;13.10;;
77524;SDS011;66638;50.050;21.124;2023-08-21T16:07:42;15.30;;;13.70;;
77524;SDS011;66638;50.050;21.124;2023-08-21T16:10:29;15.60;;;13.20;;
77524;SDS011;66638;50.050;21.124;2023-08-21T16:13:16;17.90;;;14.00;;
77524;SDS011;66638;50.050;21.124;2023-08-21T16:16:04;15.10;;;12.40;;
77524;SDS011;66638;50.050;21.124;2023-08-21T16:18:51;15.20;;;12.10;;
77524;SDS011;66638;50.050;21.124;2023-08-21T16:21:39;15.50;;;12.10;;